Time;durP1;ratioP1;P1;durP2;ratioP2;P2;SDS_P1;SDS_P2;PMS_P1;PMS_P2;Temp;Humidity;BMP_temperature;BMP_pressure;BME280_temperature;BME280_humidity;BME280_pressure;Samples;Min_cycle;Max_cycle;Signal;HPM_P1;HPM_P2
2021/06/12 00:01:32;;;;;;;10.98;5.28;;;17.80;99.90;;;;;;4988185;28;20037;-57
2021/06/12 00:03:58;;;;;;;9.63;5.82;;;17.80;99.90;;;;;;4994301;28;20033;-58
2021/06/12 00:06:23;;;;;;;9.77;6.03;;;17.70;99.90;;;;;;4992350;28;20042;-60
2021/06/12 00:08:49;;;;;;;9.70;5.97;;;17.70;99.90;;;;;;4990775;28;20033;-60
2021/06/12 00:11:14;;;;;;;13.63;7.22;;;17.70;99.90;;;;;;4998662;28;20105;-58
2021/06/12 00:13:40;;;;;;;13.35;7.22;;;17.70;99.90;;;;;;4992088;28;20400;-60
2021/06/12 00:16:06;;;;;;;14.98;8.55;;;17.60;99.90;;;;;;4985200;28;20077;-59
2021/06/12 00:18:31;;;;;;;10.95;8.18;;;17.60;99.90;;;;;;4997769;28;20036;-59
2021/06/12 00:20:57;;;;;;;13.10;8.13;;;17.60;99.90;;;;;;4998246;28;20034;-60
2021/06/12 00:23:24;;;;;;;17.60;9.20;;;17.60;99.90;;;;;;4995668;28;20029;-57
2021/06/12 00:25:49;;;;;;;14.70;8.35;;;17.70;99.90;;;;;;5000204;28;20509;-59
2021/06/12 00:28:15;;;;;;;16.60;8.70;;;17.70;99.90;;;;;;4990255;28;20106;-59
2021/06/12 00:30:40;;;;;;;21.23;8.35;;;17.70;99.90;;;;;;4990934;28;20053;-59
2021/06/12 00:33:06;;;;;;;13.20;7.70;;;17.70;99.90;;;;;;4993912;28;20041;-58
2021/06/12 00:35:33;;;;;;;13.55;7.97;;;17.70;99.90;;;;;;4996591;28;20492;-58
2021/06/12 00:37:59;;;;;;;16.38;6.80;;;17.70;99.90;;;;;;4992727;28;20034;-57
2021/06/12 00:40:25;;;;;;;13.50;6.93;;;17.70;99.90;;;;;;4995352;28;20542;-57
2021/06/12 00:42:52;;;;;;;16.40;7.63;;;17.60;99.90;;;;;;4998642;28;20096;-56
2021/06/12 00:45:20;;;;;;;9.20;6.68;;;17.70;99.90;;;;;;4994088;28;20018;-55
2021/06/12 00:47:55;;;;;;;13.30;7.10;;;17.70;99.90;;;;;;4998951;28;20049;-58
2021/06/12 00:50:25;;;;;;;16.45;7.03;;;17.60;99.90;;;;;;4999384;28;20027;-55
2021/06/12 00:52:51;;;;;;;9.85;5.68;;;17.70;99.90;;;;;;4998943;28;20041;-56
2021/06/12 00:55:17;;;;;;;9.15;5.28;;;17.70;99.90;;;;;;4985968;28;20030;-58
2021/06/12 00:57:44;;;;;;;8.90;5.85;;;17.70;99.90;;;;;;4997097;28;20511;-58
2021/06/12 01:00:13;;;;;;;8.85;5.10;;;17.70;99.90;;;;;;4996221;28;20045;-55
2021/06/12 01:02:39;;;;;;;8.20;5.32;;;17.70;99.90;;;;;;4992796;28;20022;-58
2021/06/12 01:05:08;;;;;;;8.98;6.15;;;17.70;99.90;;;;;;4995252;28;20381;-57
2021/06/12 01:07:33;;;;;;;13.85;7.18;;;17.70;99.90;;;;;;4990225;28;20043;-60
2021/06/12 01:09:59;;;;;;;8.40;4.93;;;17.70;99.90;;;;;;4994692;28;20714;-55
2021/06/12 01:12:44;;;;;;;12.10;5.38;;;17.70;99.90;;;;;;4994732;28;20046;-59
2021/06/12 01:15:11;;;;;;;13.30;6.15;;;17.70;99.90;;;;;;4988919;28;20034;-58
2021/06/12 01:17:50;;;;;;;8.82;5.65;;;17.70;99.90;;;;;;4996510;28;20435;-58
2021/06/12 01:20:48;;;;;;;8.02;4.90;;;17.70;99.90;;;;;;4991410;28;20442;-60
2021/06/12 01:23:51;;;;;;;9.80;5.95;;;17.80;99.90;;;;;;4955650;28;20038;-59
2021/06/12 01:26:24;;;;;;;8.07;5.55;;;17.80;99.90;;;;;;4994425;28;20027;-60
2021/06/12 01:29:23;;;;;;;11.90;5.75;;;17.90;99.90;;;;;;4992229;28;20037;-60
2021/06/12 01:31:53;;;;;;;10.63;6.32;;;17.80;99.90;;;;;;4993587;28;20022;-57
2021/06/12 01:34:21;;;;;;;7.97;5.55;;;17.90;99.90;;;;;;4983537;28;20552;-60
2021/06/12 01:36:48;;;;;;;8.27;4.97;;;17.80;99.90;;;;;;4998032;28;20084;-58
2021/06/12 01:39:15;;;;;;;7.63;4.20;;;17.80;99.90;;;;;;4994270;28;20027;-60
2021/06/12 01:41:42;;;;;;;11.73;4.22;;;17.70;99.90;;;;;;4998884;28;20026;-58
2021/06/12 01:44:10;;;;;;;9.02;4.95;;;17.70;99.90;;;;;;4992512;28;20026;-59
2021/06/12 01:46:38;;;;;;;7.57;4.53;;;17.60;99.90;;;;;;4995427;28;20034;-59
2021/06/12 01:49:05;;;;;;;7.55;4.75;;;17.40;99.90;;;;;;4988834;28;20025;-56
2021/06/12 01:51:31;;;;;;;10.57;5.45;;;17.40;99.90;;;;;;4992640;28;20152;-59
2021/06/12 01:53:57;;;;;;;8.63;4.50;;;17.30;99.90;;;;;;4989961;28;20791;-58
2021/06/12 01:56:26;;;;;;;14.40;5.15;;;17.20;99.90;;;;;;4995745;28;20099;-59
2021/06/12 01:58:52;;;;;;;10.32;5.82;;;17.10;99.90;;;;;;4992183;28;20038;-60
2021/06/12 02:01:20;;;;;;;7.85;4.63;;;17.10;99.90;;;;;;4988472;28;20057;-60
2021/06/12 02:03:47;;;;;;;7.10;4.97;;;17.00;99.90;;;;;;4995855;28;20025;-60
2021/06/12 02:06:16;;;;;;;7.88;5.47;;;17.00;99.90;;;;;;4991111;28;20738;-59
2021/06/12 02:08:42;;;;;;;10.77;5.57;;;17.00;99.90;;;;;;4989898;28;20037;-60
2021/06/12 02:11:10;;;;;;;9.27;5.40;;;17.00;99.90;;;;;;4993479;28;20080;-60
2021/06/12 02:13:37;;;;;;;10.90;5.43;;;17.00;99.90;;;;;;4985018;28;20080;-57
2021/06/12 02:16:03;;;;;;;8.27;6.03;;;17.00;99.90;;;;;;4994490;28;20026;-59
2021/06/12 02:18:31;;;;;;;9.45;6.50;;;17.00;99.90;;;;;;4994863;28;20042;-56
2021/06/12 02:20:58;;;;;;;13.90;6.63;;;17.10;99.90;;;;;;4990278;28;20042;-60
2021/06/12 02:23:26;;;;;;;11.30;7.57;;;17.10;99.90;;;;;;4995861;28;20038;-58
2021/06/12 02:25:52;;;;;;;11.13;5.93;;;17.10;99.90;;;;;;4989463;28;20026;-59
2021/06/12 02:28:18;;;;;;;10.18;6.30;;;17.20;99.90;;;;;;4992988;28;20018;-59
2021/06/12 02:30:46;;;;;;;7.50;5.38;;;17.30;99.90;;;;;;4989185;28;20109;-58
2021/06/12 02:33:16;;;;;;;8.07;5.50;;;17.30;99.90;;;;;;4995719;28;20042;-59
2021/06/12 02:35:42;;;;;;;7.43;4.97;;;17.40;99.90;;;;;;4992353;28;20097;-60
2021/06/12 02:38:07;;;;;;;8.68;5.20;;;17.50;99.90;;;;;;4988151;28;20030;-60
2021/06/12 02:40:33;;;;;;;9.38;5.68;;;17.50;99.90;;;;;;4999771;28;20040;-59
2021/06/12 02:42:59;;;;;;;8.13;5.22;;;17.50;99.90;;;;;;4990997;28;20387;-60
2021/06/12 02:45:27;;;;;;;12.27;5.75;;;17.60;99.90;;;;;;4993716;28;20027;-60
2021/06/12 02:48:01;;;;;;;13.07;6.55;;;17.60;99.90;;;;;;4987883;28;20035;-59
2021/06/12 02:50:31;;;;;;;8.75;6.68;;;17.60;99.90;;;;;;4992903;28;20104;-60
2021/06/12 02:53:01;;;;;;;14.35;7.65;;;17.60;99.90;;;;;;4997309;28;20460;-60
2021/06/12 02:55:30;;;;;;;12.10;6.63;;;17.60;99.90;;;;;;4996991;28;20037;-60
2021/06/12 02:57:56;;;;;;;11.00;6.20;;;17.60;99.90;;;;;;4997933;28;20089;-59
2021/06/12 03:00:23;;;;;;;7.38;5.03;;;17.60;99.90;;;;;;4989354;28;20026;-61
2021/06/12 03:02:50;;;;;;;9.52;5.35;;;17.60;99.90;;;;;;4990192;28;20639;-60
2021/06/12 03:05:19;;;;;;;7.65;5.28;;;17.50;99.90;;;;;;4991086;28;20073;-60
2021/06/12 03:07:48;;;;;;;6.38;4.30;;;17.50;99.90;;;;;;4989951;28;20034;-60
2021/06/12 03:10:16;;;;;;;7.00;4.57;;;17.50;99.90;;;;;;4990728;28;20026;-60
2021/06/12 03:12:42;;;;;;;8.02;5.10;;;17.60;99.90;;;;;;4986707;28;20023;-60
2021/06/12 03:15:09;;;;;;;9.82;6.13;;;17.60;99.90;;;;;;4996319;28;20026;-58
2021/06/12 03:17:35;;;;;;;10.68;6.28;;;17.60;99.90;;;;;;4991464;28;20046;-61
2021/06/12 03:20:04;;;;;;;12.68;7.18;;;17.60;99.90;;;;;;4993555;28;20052;-59
2021/06/12 03:22:31;;;;;;;9.65;6.32;;;17.60;99.90;;;;;;5001956;28;20041;-60
2021/06/12 03:24:57;;;;;;;9.38;6.30;;;17.70;99.90;;;;;;4995345;28;20384;-61
2021/06/12 03:27:23;;;;;;;12.27;7.15;;;17.70;99.90;;;;;;4994824;28;20026;-59
2021/06/12 03:29:50;;;;;;;15.90;7.60;;;17.70;99.90;;;;;;4990139;28;20030;-59
2021/06/12 03:32:15;;;;;;;13.18;6.72;;;17.70;99.90;;;;;;4990088;28;20034;-60
2021/06/12 03:34:42;;;;;;;12.55;6.75;;;17.70;99.90;;;;;;4987648;28;20057;-58
2021/06/12 03:37:08;;;;;;;13.10;7.28;;;17.70;99.90;;;;;;4993779;28;20077;-57
2021/06/12 03:39:34;;;;;;;14.02;9.45;;;17.80;99.90;;;;;;4990578;28;20502;-57
2021/06/12 03:42:00;;;;;;;14.95;9.63;;;17.80;99.90;;;;;;4992083;28;20026;-60
2021/06/12 03:44:27;;;;;;;12.10;7.97;;;17.90;99.90;;;;;;4991820;28;20038;-59
2021/06/12 03:46:53;;;;;;;11.48;6.85;;;18.00;99.90;;;;;;4990531;28;20446;-59
2021/06/12 03:49:19;;;;;;;9.52;5.82;;;18.00;99.90;;;;;;4994675;28;20047;-59
2021/06/12 03:51:47;;;;;;;10.35;6.07;;;18.00;99.90;;;;;;4992920;28;20050;-59
2021/06/12 03:54:14;;;;;;;10.57;6.78;;;18.00;99.90;;;;;;4992604;28;20023;-58
2021/06/12 03:56:40;;;;;;;18.50;8.07;;;18.10;99.90;;;;;;4992144;28;20050;-56
2021/06/12 03:59:07;;;;;;;15.52;8.20;;;18.10;99.90;;;;;;4987558;28;20022;-56
2021/06/12 04:01:34;;;;;;;8.65;5.18;;;18.10;99.90;;;;;;4991982;28;20088;-59
2021/06/12 04:03:59;;;;;;;7.55;5.30;;;18.20;99.90;;;;;;4992873;28;20073;-60
2021/06/12 04:06:25;;;;;;;7.60;5.38;;;18.20;99.90;;;;;;4992243;28;20030;-59
2021/06/12 04:08:50;;;;;;;8.45;4.88;;;18.00;99.90;;;;;;4990634;28;20023;-56
2021/06/12 04:11:17;;;;;;;8.90;5.18;;;17.90;99.90;;;;;;4988994;28;20454;-59
2021/06/12 04:13:43;;;;;;;7.53;5.22;;;17.90;99.90;;;;;;4987253;28;20030;-58
2021/06/12 04:16:09;;;;;;;11.52;6.28;;;17.90;99.90;;;;;;4994712;28;20676;-59
2021/06/12 04:18:35;;;;;;;7.68;5.18;;;17.90;99.90;;;;;;4993499;28;20049;-54
2021/06/12 04:21:02;;;;;;;9.73;5.57;;;17.80;99.90;;;;;;4994328;28;20121;-58
2021/06/12 04:23:28;;;;;;;7.40;5.57;;;17.80;99.90;;;;;;4998161;28;20030;-58
2021/06/12 04:25:53;;;;;;;10.85;7.25;;;17.90;99.90;;;;;;4992820;28;20026;-60
2021/06/12 04:28:19;;;;;;;19.60;8.38;;;17.90;99.90;;;;;;4990574;28;20089;-60
2021/06/12 04:30:45;;;;;;;13.10;8.50;;;18.00;99.90;;;;;;4992731;28;20026;-57
2021/06/12 04:33:10;;;;;;;14.80;7.50;;;18.10;99.90;;;;;;4992367;28;20046;-60
2021/06/12 04:35:36;;;;;;;15.40;9.35;;;18.20;99.90;;;;;;4993072;28;20149;-60
2021/06/12 04:38:02;;;;;;;14.25;10.63;;;18.30;99.90;;;;;;4994971;28;20100;-56
2021/06/12 04:40:31;;;;;;;20.05;11.70;;;18.50;99.90;;;;;;4994828;28;20034;-57
2021/06/12 04:42:57;;;;;;;18.85;11.20;;;18.60;99.90;;;;;;4993643;28;20100;-58
2021/06/12 04:45:23;;;;;;;22.08;11.48;;;18.60;99.90;;;;;;4993904;28;20014;-56
2021/06/12 04:47:49;;;;;;;20.50;10.60;;;18.60;99.90;;;;;;4991316;28;20452;-58
2021/06/12 04:50:15;;;;;;;14.73;10.48;;;18.70;99.90;;;;;;4995582;28;20105;-55
2021/06/12 04:52:41;;;;;;;25.67;10.75;;;18.70;99.90;;;;;;5003005;28;20121;-60
2021/06/12 04:55:08;;;;;;;12.85;6.45;;;18.70;99.90;;;;;;4994736;28;20105;-58
2021/06/12 04:57:34;;;;;;;15.55;10.95;;;18.80;99.90;;;;;;5002279;28;20494;-56
2021/06/12 04:59:59;;;;;;;13.55;8.55;;;18.80;99.90;;;;;;4992830;28;20066;-56
2021/06/12 05:02:25;;;;;;;11.30;6.72;;;18.70;99.90;;;;;;4996821;28;20049;-55
2021/06/12 05:04:50;;;;;;;10.98;6.40;;;18.80;99.90;;;;;;4991821;28;20096;-59
2021/06/12 05:07:16;;;;;;;11.02;5.07;;;18.80;99.90;;;;;;4995191;28;21727;-59
2021/06/12 05:09:42;;;;;;;8.32;5.90;;;18.80;99.90;;;;;;4988501;28;20041;-60
2021/06/12 05:12:08;;;;;;;9.82;5.68;;;18.90;99.90;;;;;;4995598;28;20034;-57
2021/06/12 05:14:34;;;;;;;8.40;6.00;;;18.90;99.90;;;;;;4994994;28;20038;-56
2021/06/12 05:17:02;;;;;;;10.85;6.40;;;18.90;99.90;;;;;;4991026;28;20546;-54
2021/06/12 05:19:28;;;;;;;12.63;6.45;;;19.00;99.90;;;;;;4997042;28;20447;-56
2021/06/12 05:21:54;;;;;;;13.85;7.15;;;19.30;99.90;;;;;;4992163;28;20030;-60
2021/06/12 05:24:19;;;;;;;9.90;6.15;;;19.60;99.90;;;;;;4995762;28;20707;-60
2021/06/12 05:26:45;;;;;;;11.27;7.75;;;20.00;99.90;;;;;;4997004;28;20084;-59
2021/06/12 05:29:11;;;;;;;15.00;7.63;;;20.30;99.90;;;;;;4991563;28;20077;-56
2021/06/12 05:31:36;;;;;;;18.67;7.50;;;20.00;99.90;;;;;;4993986;28;20064;-60
2021/06/12 05:34:02;;;;;;;9.73;7.30;;;19.90;99.90;;;;;;4990674;28;20026;-58
2021/06/12 05:36:30;;;;;;;12.60;7.20;;;19.80;99.90;;;;;;4994226;28;20052;-57
2021/06/12 05:38:55;;;;;;;13.38;8.02;;;19.90;99.90;;;;;;4990571;28;20049;-60
2021/06/12 05:41:21;;;;;;;20.50;10.52;;;19.80;99.90;;;;;;4998695;28;20408;-57
2021/06/12 05:43:46;;;;;;;15.00;9.52;;;19.80;99.90;;;;;;4992765;28;20448;-57
2021/06/12 05:46:12;;;;;;;16.00;10.40;;;19.80;99.90;;;;;;4991748;28;20022;-55
2021/06/12 05:48:38;;;;;;;17.15;10.88;;;19.70;99.90;;;;;;4992022;28;20034;-57
2021/06/12 05:51:03;;;;;;;18.50;11.65;;;19.70;99.90;;;;;;4995376;28;20421;-60
2021/06/12 05:53:29;;;;;;;18.60;10.98;;;19.60;99.90;;;;;;4991662;28;20026;-55
2021/06/12 05:55:55;;;;;;;16.50;10.63;;;19.50;99.90;;;;;;4995831;28;20080;-56
2021/06/12 05:58:20;;;;;;;22.98;10.70;;;19.50;99.90;;;;;;4997885;28;20031;-59
2021/06/12 06:00:46;;;;;;;15.27;9.93;;;19.50;99.90;;;;;;4988951;28;20033;-58
2021/06/12 06:03:11;;;;;;;16.15;8.45;;;19.60;99.90;;;;;;4995741;28;20027;-58
2021/06/12 06:05:37;;;;;;;15.55;9.45;;;19.90;99.90;;;;;;4991277;28;20022;-56
2021/06/12 06:08:02;;;;;;;20.20;9.30;;;20.40;99.90;;;;;;4990214;28;20527;-58
2021/06/12 06:10:28;;;;;;;19.65;8.35;;;21.30;99.90;;;;;;4991471;28;20517;-59
2021/06/12 06:12:53;;;;;;;10.82;6.07;;;22.50;99.90;;;;;;4994695;28;20362;-59
2021/06/12 06:15:19;;;;;;;10.65;6.22;;;23.50;99.90;;;;;;4996247;28;20374;-59
2021/06/12 06:17:45;;;;;;;13.35;6.47;;;24.10;99.90;;;;;;4996092;28;20515;-56
2021/06/12 06:20:12;;;;;;;11.18;6.57;;;23.70;99.90;;;;;;4990180;28;20030;-58
2021/06/12 06:22:38;;;;;;;13.25;6.97;;;23.80;99.90;;;;;;4990608;28;20045;-60
2021/06/12 06:25:05;;;;;;;10.40;5.38;;;24.60;99.90;;;;;;4992583;28;20496;-59
2021/06/12 06:27:30;;;;;;;9.38;4.88;;;25.90;99.90;;;;;;4993966;28;20034;-60
2021/06/12 06:29:56;;;;;;;7.03;5.30;;;27.60;97.50;;;;;;4992582;28;20034;-60
2021/06/12 06:32:22;;;;;;;11.45;5.50;;;27.80;94.50;;;;;;4992313;28;20085;-60
2021/06/12 06:34:47;;;;;;;9.05;5.72;;;27.80;94.10;;;;;;4992570;28;20542;-59
2021/06/12 06:37:13;;;;;;;7.97;5.95;;;27.70;93.80;;;;;;4995117;28;20096;-60
2021/06/12 06:39:38;;;;;;;9.73;6.10;;;27.50;93.50;;;;;;4994524;28;20038;-59
2021/06/12 06:42:05;;;;;;;9.73;6.43;;;27.20;93.70;;;;;;4991125;28;20030;-60
2021/06/12 06:44:32;;;;;;;8.57;6.15;;;27.00;93.60;;;;;;4993442;28;20128;-59
2021/06/12 06:46:58;;;;;;;8.82;5.43;;;26.70;94.00;;;;;;4991745;28;20030;-59
2021/06/12 06:49:23;;;;;;;10.05;4.70;;;27.10;93.90;;;;;;4991613;28;20547;-60
2021/06/12 06:51:49;;;;;;;5.93;4.38;;;26.80;93.00;;;;;;4988343;28;20034;-60
2021/06/12 06:54:14;;;;;;;6.80;5.10;;;25.90;94.30;;;;;;4990512;28;20030;-59
2021/06/12 06:56:40;;;;;;;7.95;4.60;;;25.60;95.30;;;;;;4992772;28;20065;-59
2021/06/12 06:59:06;;;;;;;5.15;4.22;;;25.80;96.10;;;;;;4993169;28;20036;-59
2021/06/12 07:01:31;;;;;;;7.00;3.47;;;26.30;94.50;;;;;;4965300;28;20531;-59
2021/06/12 07:03:57;;;;;;;5.80;3.13;;;27.40;93.60;;;;;;4989686;28;20026;-60
2021/06/12 07:06:23;;;;;;;4.15;3.00;;;28.10;91.40;;;;;;4986588;28;20109;-59
2021/06/12 07:08:48;;;;;;;4.00;2.65;;;28.30;90.00;;;;;;4988710;28;20030;-60
2021/06/12 07:11:14;;;;;;;5.15;3.58;;;27.20;91.60;;;;;;4988667;28;20092;-58
2021/06/12 07:13:40;;;;;;;5.55;3.45;;;26.80;92.70;;;;;;4986562;28;20034;-60
2021/06/12 07:16:06;;;;;;;8.70;2.80;;;26.60;92.50;;;;;;4986430;28;20018;-60
2021/06/12 07:18:32;;;;;;;4.15;2.60;;;26.60;92.00;;;;;;4996449;28;20034;-59
2021/06/12 07:20:57;;;;;;;9.38;2.70;;;27.50;90.90;;;;;;4990222;28;20032;-59
2021/06/12 07:23:23;;;;;;;6.72;2.58;;;27.90;90.60;;;;;;4991798;28;20168;-60
2021/06/12 07:25:49;;;;;;;4.45;2.45;;;27.80;88.90;;;;;;4990592;28;20026;-60
2021/06/12 07:28:15;;;;;;;6.40;2.53;;;27.20;89.40;;;;;;4995065;28;20037;-59
2021/06/12 07:30:42;;;;;;;4.95;2.35;;;26.50;90.30;;;;;;4988349;28;20038;-59
2021/06/12 07:33:09;;;;;;;3.30;2.15;;;25.30;92.80;;;;;;4986092;28;20179;-60
2021/06/12 07:35:35;;;;;;;2.95;1.75;;;25.40;93.20;;;;;;4990597;28;20037;-58
2021/06/12 07:38:02;;;;;;;3.67;2.17;;;25.90;92.70;;;;;;4988454;28;20432;-59
2021/06/12 07:40:28;;;;;;;3.80;1.90;;;26.40;91.30;;;;;;4997487;28;20096;-57
2021/06/12 07:42:53;;;;;;;5.20;1.75;;;26.40;91.40;;;;;;4985963;28;20518;-58
2021/06/12 07:45:19;;;;;;;5.30;2.28;;;27.00;91.60;;;;;;4990294;28;20033;-60
2021/06/12 07:47:45;;;;;;;5.75;1.95;;;26.50;90.40;;;;;;4988773;28;20049;-61
2021/06/12 07:50:11;;;;;;;5.35;2.17;;;26.00;92.20;;;;;;4991889;28;20109;-58
2021/06/12 07:52:36;;;;;;;4.00;1.63;;;25.70;92.60;;;;;;4989584;28;20039;-60
2021/06/12 07:55:03;;;;;;;5.60;1.77;;;26.80;92.70;;;;;;4991306;28;20035;-59
2021/06/12 07:57:28;;;;;;;6.85;3.08;;;28.00;91.40;;;;;;4988544;28;20035;-60
2021/06/12 07:59:54;;;;;;;4.85;2.65;;;28.60;87.70;;;;;;4990039;28;20030;-59
2021/06/12 08:02:19;;;;;;;5.65;3.17;;;28.20;84.60;;;;;;4978431;28;20092;-60
2021/06/12 08:04:45;;;;;;;7.10;2.22;;;27.40;85.30;;;;;;4991074;28;20033;-59
2021/06/12 08:07:12;;;;;;;5.82;2.85;;;27.60;87.30;;;;;;4992826;28;20089;-60
2021/06/12 08:09:38;;;;;;;7.28;2.45;;;27.70;85.90;;;;;;4989923;28;20030;-60
2021/06/12 08:12:04;;;;;;;2.88;2.15;;;28.80;84.50;;;;;;4990057;28;20026;-61
2021/06/12 08:14:30;;;;;;;4.63;2.72;;;29.10;82.20;;;;;;4996301;28;20040;-60
2021/06/12 08:16:56;;;;;;;3.42;2.45;;;29.70;79.30;;;;;;4991167;28;20462;-60
2021/06/12 08:19:21;;;;;;;4.50;2.80;;;29.50;79.20;;;;;;4994210;28;20575;-60
2021/06/12 08:21:47;;;;;;;5.97;2.78;;;28.80;80.80;;;;;;4988916;28;20034;-60
2021/06/12 08:24:13;;;;;;;6.03;3.05;;;28.50;81.10;;;;;;4998894;28;20069;-59
2021/06/12 08:26:38;;;;;;;6.00;3.65;;;28.70;83.10;;;;;;4988822;28;20450;-60
2021/06/12 08:29:04;;;;;;;4.88;3.50;;;29.50;80.40;;;;;;4996083;28;20026;-61
2021/06/12 08:31:34;;;;;;;5.82;4.50;;;29.10;80.80;;;;;;4993143;28;20117;-59
2021/06/12 08:34:00;;;;;;;8.52;4.13;;;28.70;79.90;;;;;;4990131;28;20038;-61
2021/06/12 08:36:25;;;;;;;5.18;4.18;;;29.30;79.90;;;;;;4995908;28;20046;-59
2021/06/12 08:38:51;;;;;;;5.85;4.57;;;28.90;81.70;;;;;;4996050;28;20041;-59
2021/06/12 08:41:16;;;;;;;8.02;5.22;;;28.00;82.50;;;;;;4993744;28;20058;-58
2021/06/12 08:43:42;;;;;;;9.07;6.00;;;26.90;85.00;;;;;;4998389;28;20050;-59
2021/06/12 08:46:09;;;;;;;14.50;7.15;;;26.00;90.10;;;;;;4991456;28;20472;-60
2021/06/12 08:48:35;;;;;;;11.25;7.65;;;25.30;91.30;;;;;;4994596;28;20028;-59
2021/06/12 08:51:01;;;;;;;14.90;12.30;;;24.90;93.40;;;;;;4992727;28;20022;-59
2021/06/12 08:53:28;;;;;;;16.63;10.80;;;24.60;93.40;;;;;;4998901;28;20030;-59
2021/06/12 08:55:53;;;;;;;16.45;9.55;;;24.40;94.10;;;;;;4992791;28;20048;-56
2021/06/12 08:58:19;;;;;;;13.05;11.68;;;24.20;94.80;;;;;;4993167;28;20101;-56
2021/06/12 09:00:45;;;;;;;17.15;11.55;;;24.00;95.50;;;;;;4974603;28;20404;-56
2021/06/12 09:03:16;;;;;;;13.13;10.90;;;23.80;96.50;;;;;;4998818;28;20034;-55
2021/06/12 09:05:52;;;;;;;12.80;10.75;;;24.10;96.50;;;;;;4991980;28;20030;-55
2021/06/12 09:08:22;;;;;;;13.82;10.20;;;24.30;95.70;;;;;;4993134;28;20026;-59
2021/06/12 09:10:57;;;;;;;11.18;8.65;;;24.20;95.80;;;;;;4990405;28;20168;-57
2021/06/12 09:13:47;;;;;;;14.75;8.90;;;24.20;96.00;;;;;;4995019;28;20069;-55
2021/06/12 09:16:27;;;;;;;13.90;8.07;;;24.00;96.70;;;;;;4994445;28;20439;-59
2021/06/12 09:18:56;;;;;;;13.77;8.30;;;24.00;97.00;;;;;;4994755;28;20101;-60
2021/06/12 09:21:30;;;;;;;11.20;7.80;;;24.00;96.80;;;;;;4992824;28;20161;-57
2021/06/12 09:23:58;;;;;;;11.77;8.43;;;23.70;96.40;;;;;;4999606;28;20037;-56
2021/06/12 09:26:44;;;;;;;12.05;8.18;;;23.60;97.20;;;;;;4994534;28;20117;-58
2021/06/12 09:29:10;;;;;;;10.02;8.20;;;23.40;97.70;;;;;;4995420;28;20106;-57
2021/06/12 09:31:45;;;;;;;13.30;9.25;;;23.10;98.20;;;;;;4991687;28;20109;-59
2021/06/12 09:34:13;;;;;;;14.30;8.98;;;22.70;99.60;;;;;;4984135;28;20791;-59
2021/06/12 09:36:40;;;;;;;15.73;9.25;;;22.50;99.90;;;;;;4991890;28;20491;-58
2021/06/12 09:39:08;;;;;;;12.93;8.70;;;22.40;99.90;;;;;;4995584;28;20042;-58
2021/06/12 09:41:34;;;;;;;11.63;9.13;;;22.10;99.90;;;;;;4995497;28;20022;-60
2021/06/12 09:44:00;;;;;;;17.23;10.45;;;21.90;99.90;;;;;;4994995;28;20045;-56
2021/06/12 09:46:33;;;;;;;14.07;11.65;;;21.60;99.90;;;;;;4992214;28;20030;-59
2021/06/12 09:48:59;;;;;;;11.80;10.60;;;21.40;99.90;;;;;;4990776;28;20028;-58
2021/06/12 09:51:24;;;;;;;14.90;13.48;;;21.20;99.90;;;;;;5000942;28;20037;-58
2021/06/12 09:53:53;;;;;;;16.77;15.05;;;21.10;99.90;;;;;;4990796;28;20555;-59
2021/06/12 09:56:19;;;;;;;19.98;15.38;;;21.00;99.90;;;;;;5000695;28;20053;-59
2021/06/12 09:58:44;;;;;;;18.08;15.80;;;20.90;99.90;;;;;;4992740;28;20069;-58
2021/06/12 10:01:12;;;;;;;18.48;13.43;;;21.10;99.90;;;;;;4981576;28;20150;-59
2021/06/12 10:03:38;;;;;;;16.10;14.27;;;21.30;99.90;;;;;;4985152;28;20119;-59
2021/06/12 10:06:23;;;;;;;14.75;13.23;;;21.20;99.90;;;;;;4982474;28;20050;-58
2021/06/12 10:08:51;;;;;;;17.63;13.88;;;21.30;99.90;;;;;;4985867;28;20093;-58
2021/06/12 10:11:22;;;;;;;20.38;16.10;;;21.50;99.90;;;;;;4990432;28;20108;-59
2021/06/12 10:13:48;;;;;;;19.00;14.88;;;21.40;99.90;;;;;;4990540;28;20627;-59
2021/06/12 10:16:15;;;;;;;15.85;12.63;;;21.80;99.90;;;;;;4992523;28;20125;-58
2021/06/12 10:18:42;;;;;;;13.30;11.88;;;22.50;99.90;;;;;;4998853;28;20113;-59
2021/06/12 10:21:12;;;;;;;13.45;12.05;;;23.20;99.90;;;;;;4988986;28;20046;-60
2021/06/12 10:23:39;;;;;;;12.65;11.43;;;23.80;99.90;;;;;;4990860;28;20025;-59
2021/06/12 10:26:09;;;;;;;13.13;11.73;;;24.30;99.90;;;;;;4993077;28;20059;-59
2021/06/12 10:28:35;;;;;;;16.38;11.18;;;24.40;99.90;;;;;;5000591;28;20027;-59
2021/06/12 10:31:06;;;;;;;12.30;10.15;;;24.10;99.90;;;;;;5003504;28;20030;-61
2021/06/12 10:33:33;;;;;;;14.45;10.52;;;23.80;99.90;;;;;;5005172;28;20500;-60
2021/06/12 10:36:13;;;;;;;13.25;10.25;;;23.60;99.90;;;;;;5002258;28;20034;-60
2021/06/12 10:38:38;;;;;;;18.05;10.25;;;23.10;99.90;;;;;;4994111;28;20113;-58
2021/06/12 10:41:35;;;;;;;11.90;9.48;;;22.70;99.90;;;;;;5005440;28;20105;-57
2021/06/12 10:44:02;;;;;;;12.95;9.25;;;22.50;99.90;;;;;;4985392;28;20038;-58
2021/06/12 10:46:45;;;;;;;16.38;10.45;;;22.30;99.90;;;;;;4996450;28;20046;-60
2021/06/12 10:49:10;;;;;;;13.65;10.75;;;22.30;99.90;;;;;;4996594;28;20425;-59
2021/06/12 10:51:36;;;;;;;12.00;9.63;;;22.30;99.90;;;;;;4992964;28;20023;-60
2021/06/12 10:56:46;;;;;;;12.35;10.38;;;22.60;99.90;;;;;;4998555;28;20545;-59
2021/06/12 10:59:13;;;;;;;11.15;9.25;;;22.20;99.90;;;;;;4993491;28;20060;-59
2021/06/12 11:02:16;;;;;;;13.55;8.40;;;21.90;99.90;;;;;;4982478;28;20146;-61
2021/06/12 11:04:47;;;;;;;10.35;8.35;;;22.10;99.90;;;;;;4989459;28;20026;-57
2021/06/12 11:07:27;;;;;;;10.80;8.70;;;22.20;99.90;;;;;;4984011;28;20089;-60
2021/06/12 11:09:54;;;;;;;14.20;9.45;;;22.20;99.90;;;;;;4984294;28;20022;-59
2021/06/12 11:12:20;;;;;;;18.27;10.27;;;22.00;99.90;;;;;;4981817;28;20034;-57
2021/06/12 11:15:23;;;;;;;11.93;9.05;;;21.90;99.90;;;;;;4993468;28;20406;-59
2021/06/12 11:18:18;;;;;;;13.30;9.23;;;21.60;99.90;;;;;;4975726;28;20042;-58
2021/06/12 11:21:05;;;;;;;15.73;8.48;;;21.70;99.90;;;;;;4992699;28;20289;-58
2021/06/12 11:23:49;;;;;;;13.93;9.57;;;21.40;99.90;;;;;;4998730;28;20500;-57
2021/06/12 11:26:15;;;;;;;14.45;10.38;;;21.70;99.90;;;;;;4986725;28;20390;-60
2021/06/12 11:28:42;;;;;;;14.43;9.25;;;21.90;99.90;;;;;;4988893;28;20721;-58
2021/06/12 11:31:33;;;;;;;12.25;10.18;;;22.30;99.90;;;;;;4993311;28;21672;-60
2021/06/12 11:34:12;;;;;;;13.27;9.73;;;23.00;99.90;;;;;;4984139;28;20136;-58
2021/06/12 11:36:38;;;;;;;13.07;8.98;;;23.10;99.90;;;;;;4992961;28;20030;-58
2021/06/12 11:39:03;;;;;;;11.15;9.32;;;23.90;99.90;;;;;;4992868;28;20038;-60
2021/06/12 11:41:29;;;;;;;12.38;8.43;;;24.10;99.40;;;;;;4994670;28;20031;-59
2021/06/12 11:43:56;;;;;;;11.00;8.85;;;24.30;99.80;;;;;;4998001;28;20027;-60
2021/06/12 11:46:32;;;;;;;13.32;9.85;;;24.60;97.80;;;;;;5003608;28;20101;-61
2021/06/12 11:48:59;;;;;;;20.02;9.88;;;24.60;97.60;;;;;;5001258;28;20057;-57
2021/06/12 11:51:31;;;;;;;11.13;10.00;;;24.80;97.60;;;;;;5001559;28;20113;-60
2021/06/12 11:54:17;;;;;;;17.55;10.82;;;24.30;97.40;;;;;;5000296;28;20034;-59
2021/06/12 11:56:48;;;;;;;16.70;9.85;;;23.60;97.90;;;;;;4993935;28;20026;-58
2021/06/12 11:59:17;;;;;;;13.43;9.25;;;23.80;98.50;;;;;;4995675;28;20391;-58
2021/06/12 12:01:46;;;;;;;13.52;10.35;;;24.00;98.60;;;;;;4973044;28;20042;-59
2021/06/12 12:04:18;;;;;;;9.90;8.57;;;24.10;98.10;;;;;;5008790;28;20423;-59
2021/06/12 12:06:46;;;;;;;13.60;10.35;;;24.40;98.00;;;;;;5005511;28;20100;-61
2021/06/12 12:09:27;;;;;;;11.43;8.90;;;24.40;97.10;;;;;;4999635;28;20038;-60
2021/06/12 12:11:57;;;;;;;13.23;9.48;;;24.40;96.90;;;;;;5001352;28;20034;-58
2021/06/12 12:14:43;;;;;;;10.40;8.00;;;24.50;97.20;;;;;;5005578;28;20442;-59
2021/06/12 12:17:26;;;;;;;13.18;8.25;;;24.60;96.50;;;;;;5000449;28;20036;-58
2021/06/12 12:19:57;;;;;;;17.33;10.60;;;24.60;97.30;;;;;;5003211;28;20030;-58
2021/06/12 12:22:35;;;;;;;13.93;10.15;;;24.30;96.80;;;;;;5000394;28;20064;-60
2021/06/12 12:25:01;;;;;;;16.58;10.20;;;24.30;96.80;;;;;;5006135;28;20033;-59
2021/06/12 12:27:27;;;;;;;13.43;9.80;;;24.50;96.00;;;;;;5005569;28;20044;-60
2021/06/12 12:29:52;;;;;;;11.75;9.30;;;24.60;96.40;;;;;;4998177;28;20045;-56
2021/06/12 12:32:24;;;;;;;11.70;9.45;;;24.90;96.40;;;;;;5000161;28;20042;-60
2021/06/12 12:34:50;;;;;;;13.30;10.20;;;25.00;95.10;;;;;;5001479;28;20116;-60
2021/06/12 12:37:21;;;;;;;13.00;10.45;;;25.00;95.40;;;;;;5003950;28;20109;-60
2021/06/12 12:39:50;;;;;;;13.38;10.10;;;25.00;93.90;;;;;;5006783;28;20017;-59
2021/06/12 12:42:18;;;;;;;14.15;10.38;;;25.30;94.50;;;;;;5006020;28;20109;-59
2021/06/12 12:44:45;;;;;;;15.52;9.95;;;25.30;94.70;;;;;;4996883;28;20157;-59
2021/06/12 12:47:13;;;;;;;16.65;11.63;;;25.10;94.70;;;;;;4996096;28;20053;-59